Time;durP1;ratioP1;P1;durP2;ratioP2;P2;SDS_P1;SDS_P2;PMS_P1;PMS_P2;Temp;Humidity;BMP_temperature;BMP_pressure;BME280_temperature;BME280_humidity;BME280_pressure;Samples;Min_cycle;Max_cycle;Signal;HPM_P1;HPM_P2
2023/08/06 00:02:30;;;;;;;3.97;2.50;;;;;;;;;;4993641;28;20218;-71
2023/08/06 00:05:34;;;;;;;2.93;2.07;;;;;;;;;;4993569;28;20210;-72
2023/08/06 00:08:39;;;;;;;2.20;1.90;;;;;;;;;;4993870;28;20174;-71
2023/08/06 00:11:43;;;;;;;3.20;2.00;;;;;;;;;;4993553;28;20562;-71
2023/08/06 00:14:51;;;;;;;2.67;1.60;;;;;;;;;;4992808;28;20170;-71
2023/08/06 00:17:56;;;;;;;2.23;2.00;;;;;;;;;;4993628;28;20186;-71
2023/08/06 00:21:00;;;;;;;4.63;2.33;;;;;;;;;;4997548;28;20209;-71
2023/08/06 00:24:04;;;;;;;2.10;1.90;;;;;;;;;;4996920;28;20173;-71
2023/08/06 00:27:08;;;;;;;3.10;1.80;;;;;;;;;;4997669;28;20182;-71
2023/08/06 00:30:12;;;;;;;2.53;1.80;;;;;;;;;;4985782;28;20174;-71
2023/08/06 00:33:16;;;;;;;1.73;1.60;;;;;;;;;;4974390;28;20178;-71
2023/08/06 00:36:21;;;;;;;2.00;1.80;;;;;;;;;;4985322;28;20175;-71
2023/08/06 00:39:25;;;;;;;1.90;1.67;;;;;;;;;;4985313;28;20186;-71
2023/08/06 00:42:29;;;;;;;3.17;2.10;;;;;;;;;;4996294;28;20218;-71
2023/08/06 00:45:36;;;;;;;2.10;1.90;;;;;;;;;;4974193;28;20201;-71
2023/08/06 00:48:41;;;;;;;5.33;2.03;;;;;;;;;;4997167;28;20182;-71
2023/08/06 00:51:47;;;;;;;2.87;2.20;;;;;;;;;;4997237;28;20222;-72
2023/08/06 00:54:51;;;;;;;3.40;2.23;;;;;;;;;;4997000;28;20178;-71
2023/08/06 00:57:56;;;;;;;2.50;2.00;;;;;;;;;;4996201;28;20541;-71
2023/08/06 01:01:00;;;;;;;2.80;2.03;;;;;;;;;;4997100;28;20217;-71
2023/08/06 01:04:04;;;;;;;2.77;2.30;;;;;;;;;;4984864;28;20174;-71
2023/08/06 01:07:25;;;;;;;2.60;2.40;;;;;;;;;;4984951;28;20175;-72
2023/08/06 01:10:53;;;;;;;3.47;2.67;;;;;;;;;;4996094;28;20669;-72
2023/08/06 01:14:02;;;;;;;2.97;2.50;;;;;;;;;;4984917;28;20633;-72
2023/08/06 01:17:07;;;;;;;3.87;2.30;;;;;;;;;;4995987;28;20174;-72
2023/08/06 01:20:11;;;;;;;2.47;2.20;;;;;;;;;;4995745;28;20186;-71
2023/08/06 01:23:16;;;;;;;3.03;2.73;;;;;;;;;;4996679;28;20190;-72
2023/08/06 01:26:38;;;;;;;3.07;2.77;;;;;;;;;;4995518;28;20222;-71
2023/08/06 01:29:53;;;;;;;3.70;2.70;;;;;;;;;;4995814;28;20634;-71
2023/08/06 01:33:00;;;;;;;4.27;2.80;;;;;;;;;;4984312;28;20186;-71
2023/08/06 01:36:06;;;;;;;5.00;2.60;;;;;;;;;;4995724;28;20179;-71
2023/08/06 01:39:10;;;;;;;3.37;2.40;;;;;;;;;;4995395;28;20182;-72
2023/08/06 01:42:14;;;;;;;3.10;2.30;;;;;;;;;;4995501;28;20217;-71
2023/08/06 01:45:18;;;;;;;5.60;2.60;;;;;;;;;;4995988;28;20685;-71
2023/08/06 01:48:22;;;;;;;3.33;2.70;;;;;;;;;;4995218;28;20517;-71
2023/08/06 01:51:26;;;;;;;2.20;2.00;;;;;;;;;;4995383;28;20209;-71
2023/08/06 01:54:30;;;;;;;4.20;2.27;;;;;;;;;;4983905;28;20178;-71
2023/08/06 01:57:34;;;;;;;2.97;2.50;;;;;;;;;;4994939;28;20206;-71
2023/08/06 02:00:38;;;;;;;2.97;2.63;;;;;;;;;;4995194;28;20182;-71
2023/08/06 02:03:43;;;;;;;2.47;2.27;;;;;;;;;;4995709;28;20194;-71
2023/08/06 02:06:48;;;;;;;5.70;2.57;;;;;;;;;;4983810;28;20226;-71
2023/08/06 02:09:52;;;;;;;5.03;2.63;;;;;;;;;;4983752;28;20183;-71
2023/08/06 02:12:57;;;;;;;3.20;2.57;;;;;;;;;;4994797;28;20178;-71
2023/08/06 02:16:01;;;;;;;4.10;2.70;;;;;;;;;;4994698;28;20174;-71
2023/08/06 02:19:05;;;;;;;3.43;2.80;;;;;;;;;;4994630;28;20178;-71
2023/08/06 02:22:09;;;;;;;2.90;2.60;;;;;;;;;;4983694;28;20218;-71
2023/08/06 02:25:14;;;;;;;4.40;2.80;;;;;;;;;;4972258;28;20202;-71
2023/08/06 02:28:19;;;;;;;4.23;2.50;;;;;;;;;;4983309;28;20191;-71
2023/08/06 02:31:24;;;;;;;8.00;2.67;;;;;;;;;;4983115;28;20217;-71
2023/08/06 02:34:28;;;;;;;5.23;3.20;;;;;;;;;;4994328;28;20181;-71
2023/08/06 02:37:34;;;;;;;3.07;2.77;;;;;;;;;;4994196;28;20669;-71
2023/08/06 02:40:47;;;;;;;5.53;3.10;;;;;;;;;;4993848;28;20182;-71
2023/08/06 02:43:52;;;;;;;5.87;3.60;;;;;;;;;;4971977;28;20198;-71
2023/08/06 02:46:56;;;;;;;5.43;3.17;;;;;;;;;;4994033;28;20201;-71
2023/08/06 02:50:01;;;;;;;3.93;3.53;;;;;;;;;;4994025;28;20523;-71
2023/08/06 02:53:08;;;;;;;7.50;3.83;;;;;;;;;;4983026;28;20186;-71
2023/08/06 02:56:12;;;;;;;4.90;4.40;;;;;;;;;;4994010;28;20210;-71
2023/08/06 02:59:28;;;;;;;5.63;3.90;;;;;;;;;;4982970;28;20182;-71
2023/08/06 03:02:53;;;;;;;4.97;4.30;;;;;;;;;;4994908;28;20186;-71
2023/08/06 03:06:08;;;;;;;5.97;4.00;;;;;;;;;;4993899;28;20206;-71
2023/08/06 03:09:21;;;;;;;4.77;3.80;;;;;;;;;;4982799;28;20171;-71
2023/08/06 03:12:27;;;;;;;4.50;3.93;;;;;;;;;;4993858;28;20214;-71
2023/08/06 03:15:31;;;;;;;6.47;4.40;;;;;;;;;;4993833;28;20197;-71
2023/08/06 03:18:35;;;;;;;5.73;4.27;;;;;;;;;;4982469;28;20182;-71
2023/08/06 03:21:42;;;;;;;5.53;4.20;;;;;;;;;;4993601;28;20218;-71
2023/08/06 03:24:50;;;;;;;6.37;4.73;;;;;;;;;;4982305;28;20186;-71
2023/08/06 03:27:56;;;;;;;5.17;4.67;;;;;;;;;;4993313;28;20213;-71
2023/08/06 03:31:02;;;;;;;7.70;4.53;;;;;;;;;;4993226;28;20218;-71
2023/08/06 03:34:12;;;;;;;5.43;4.80;;;;;;;;;;4983159;28;20178;-71
2023/08/06 03:37:16;;;;;;;8.10;5.27;;;;;;;;;;4971196;28;20178;-71
2023/08/06 03:40:20;;;;;;;7.70;5.40;;;;;;;;;;4993454;28;20181;-71
2023/08/06 03:43:24;;;;;;;7.03;5.40;;;;;;;;;;4993116;28;20194;-71
2023/08/06 03:46:32;;;;;;;6.33;5.37;;;;;;;;;;4981874;28;20217;-71
2023/08/06 03:49:36;;;;;;;6.00;5.40;;;;;;;;;;4993071;28;20530;-71
2023/08/06 03:52:42;;;;;;;5.40;4.87;;;;;;;;;;4981605;28;20210;-71
2023/08/06 03:55:46;;;;;;;6.97;5.20;;;;;;;;;;4970693;28;20637;-71
2023/08/06 03:58:50;;;;;;;6.77;4.93;;;;;;;;;;4993171;28;20182;-71
2023/08/06 04:01:54;;;;;;;5.23;4.73;;;;;;;;;;4981746;28;20558;-71
2023/08/06 04:04:59;;;;;;;9.20;4.90;;;;;;;;;;4981730;28;20178;-71
2023/08/06 04:08:03;;;;;;;6.67;4.93;;;;;;;;;;4981759;28;20174;-71
2023/08/06 04:11:09;;;;;;;5.17;4.40;;;;;;;;;;4981635;28;20214;-71
2023/08/06 04:14:13;;;;;;;4.63;4.00;;;;;;;;;;4993914;28;20641;-71
2023/08/06 04:17:20;;;;;;;5.60;4.33;;;;;;;;;;4992768;28;20174;-71
2023/08/06 04:20:24;;;;;;;4.93;4.30;;;;;;;;;;4981477;28;20194;-71
2023/08/06 04:23:28;;;;;;;4.83;4.30;;;;;;;;;;4981815;28;20178;-71
2023/08/06 04:26:37;;;;;;;4.03;3.60;;;;;;;;;;4992637;28;20554;-71
2023/08/06 04:29:41;;;;;;;5.10;3.93;;;;;;;;;;4981562;28;20182;-71
2023/08/06 04:32:45;;;;;;;6.30;4.20;;;;;;;;;;4992521;28;20217;-71
2023/08/06 04:35:56;;;;;;;4.37;3.87;;;;;;;;;;4992847;28;20637;-71
2023/08/06 04:39:01;;;;;;;4.80;3.97;;;;;;;;;;4981703;28;20182;-71
2023/08/06 04:42:06;;;;;;;4.97;4.10;;;;;;;;;;4981325;28;20218;-71
2023/08/06 04:45:10;;;;;;;4.73;4.23;;;;;;;;;;4992528;28;20657;-71
2023/08/06 04:48:15;;;;;;;4.87;4.37;;;;;;;;;;4992567;28;20523;-72
2023/08/06 04:51:19;;;;;;;6.07;4.47;;;;;;;;;;4993487;28;20707;-71
2023/08/06 04:54:24;;;;;;;4.70;3.93;;;;;;;;;;4993544;28;20183;-71
2023/08/06 04:57:28;;;;;;;4.30;3.90;;;;;;;;;;4993327;28;20202;-71
2023/08/06 05:00:33;;;;;;;6.37;4.57;;;;;;;;;;4993343;28;20186;-71
2023/08/06 05:03:37;;;;;;;4.87;4.10;;;;;;;;;;4993441;28;20179;-71
2023/08/06 05:06:41;;;;;;;4.50;3.87;;;;;;;;;;4997005;28;20206;-71
2023/08/06 05:09:45;;;;;;;5.20;4.10;;;;;;;;;;4996743;28;20178;-71
2023/08/06 05:12:49;;;;;;;5.07;3.70;;;;;;;;;;4984957;28;20642;-71
2023/08/06 05:15:54;;;;;;;4.93;3.90;;;;;;;;;;4996697;28;20182;-71
2023/08/06 05:18:58;;;;;;;6.27;3.40;;;;;;;;;;4984571;28;20174;-71
2023/08/06 05:22:02;;;;;;;6.43;3.40;;;;;;;;;;4995593;28;20218;-71
2023/08/06 05:25:07;;;;;;;4.50;3.60;;;;;;;;;;4996714;28;20190;-71
2023/08/06 05:28:11;;;;;;;3.53;2.90;;;;;;;;;;4984436;28;20530;-71
2023/08/06 05:31:15;;;;;;;4.23;2.83;;;;;;;;;;4996574;28;20218;-71
2023/08/06 05:34:19;;;;;;;3.33;2.87;;;;;;;;;;4984307;28;20198;-71
2023/08/06 05:37:23;;;;;;;4.47;3.10;;;;;;;;;;4984249;28;20198;-71
2023/08/06 05:40:27;;;;;;;5.07;2.97;;;;;;;;;;4996083;28;20178;-71
2023/08/06 05:43:31;;;;;;;6.07;2.80;;;;;;;;;;4973451;28;20637;-71
2023/08/06 05:46:35;;;;;;;5.10;3.23;;;;;;;;;;4984056;28;20206;-71
2023/08/06 05:49:39;;;;;;;5.53;2.87;;;;;;;;;;4984008;28;20183;-71
2023/08/06 05:52:43;;;;;;;6.43;2.67;;;;;;;;;;4995889;28;20214;-71
2023/08/06 05:55:47;;;;;;;2.83;2.40;;;;;;;;;;4984055;28;20202;-72
2023/08/06 05:58:53;;;;;;;3.17;2.43;;;;;;;;;;4996035;28;20178;-71
2023/08/06 06:01:57;;;;;;;5.90;2.73;;;;;;;;;;4983784;28;20565;-71
2023/08/06 06:05:01;;;;;;;7.80;2.00;;;;;;;;;;5022114;22;20237;-74
2023/08/06 06:08:05;;;;;;;4.03;2.27;;;;;;;;;;5015676;28;20182;-73
2023/08/06 06:11:09;;;;;;;18.27;11.53;;;;;;;;;;5021487;28;20217;-74
2023/08/06 06:14:13;;;;;;;10.63;8.30;;;;;;;;;;5035017;28;20662;-74
2023/08/06 06:17:17;;;;;;;2.53;2.20;;;;;;;;;;5035060;28;20177;-74
2023/08/06 06:20:22;;;;;;;5.10;2.10;;;;;;;;;;5034819;28;20538;-74
2023/08/06 06:23:26;;;;;;;2.50;1.97;;;;;;;;;;5034386;28;20185;-74
2023/08/06 06:26:30;;;;;;;2.67;1.93;;;;;;;;;;5035253;28;20242;-74
2023/08/06 06:29:34;;;;;;;6.03;4.33;;;;;;;;;;5034985;28;20181;-74
2023/08/06 06:32:39;;;;;;;3.33;2.20;;;;;;;;;;5033855;28;20695;-74
2023/08/06 06:35:43;;;;;;;3.10;2.13;;;;;;;;;;5034249;28;20177;-74
2023/08/06 06:38:49;;;;;;;2.97;2.00;;;;;;;;;;5034042;28;20181;-74
2023/08/06 06:41:53;;;;;;;3.97;2.30;;;;;;;;;;5033683;28;20216;-75
2023/08/06 06:45:04;;;;;;;2.70;2.10;;;;;;;;;;5022289;28;20185;-74
2023/08/06 06:48:08;;;;;;;3.93;2.53;;;;;;;;;;5034419;28;20213;-73
2023/08/06 06:51:12;;;;;;;3.13;2.83;;;;;;;;;;5034120;28;20216;-73
2023/08/06 06:54:16;;;;;;;7.10;5.73;;;;;;;;;;5034171;28;20655;-73
2023/08/06 06:57:20;;;;;;;2.77;2.07;;;;;;;;;;5022111;28;20659;-73
2023/08/06 07:00:24;;;;;;;5.70;2.30;;;;;;;;;;5034217;28;20177;-73
2023/08/06 07:03:29;;;;;;;2.37;2.07;;;;;;;;;;5034229;28;20196;-73
2023/08/06 07:06:33;;;;;;;4.33;2.10;;;;;;;;;;5032981;28;20220;-73
2023/08/06 07:09:37;;;;;;;3.90;1.80;;;;;;;;;;5021745;28;20181;-73
2023/08/06 07:12:42;;;;;;;2.03;1.70;;;;;;;;;;5022142;28;20212;-73
2023/08/06 07:15:46;;;;;;;2.90;2.00;;;;;;;;;;5034039;28;20177;-73
2023/08/06 07:18:53;;;;;;;3.07;1.57;;;;;;;;;;5033135;28;20603;-73
2023/08/06 07:21:57;;;;;;;2.47;1.70;;;;;;;;;;5033512;28;20557;-73
2023/08/06 07:25:01;;;;;;;1.70;1.43;;;;;;;;;;5034085;28;20185;-73
2023/08/06 07:28:05;;;;;;;5.23;2.00;;;;;;;;;;5020889;28;20548;-73
2023/08/06 07:31:09;;;;;;;2.73;1.80;;;;;;;;;;5033552;28;20208;-73
2023/08/06 07:34:13;;;;;;;2.60;1.53;;;;;;;;;;5033705;28;20181;-73
2023/08/06 07:37:17;;;;;;;1.73;1.50;;;;;;;;;;5032712;28;20635;-73
2023/08/06 07:40:22;;;;;;;2.83;1.70;;;;;;;;;;5020982;28;20181;-73
2023/08/06 07:43:26;;;;;;;2.47;1.63;;;;;;;;;;5021266;28;20181;-73
2023/08/06 07:46:30;;;;;;;1.93;1.60;;;;;;;;;;5032682;28;20212;-74
2023/08/06 07:49:34;;;;;;;3.37;1.70;;;;;;;;;;5033224;28;20528;-74
2023/08/06 07:52:38;;;;;;;1.90;1.37;;;;;;;;;;5033310;28;20216;-74
2023/08/06 07:55:42;;;;;;;3.80;1.40;;;;;;;;;;5032725;28;20172;-74
2023/08/06 07:58:47;;;;;;;1.90;1.60;;;;;;;;;;5021226;28;20177;-74
2023/08/06 08:01:51;;;;;;;2.97;1.60;;;;;;;;;;5032902;28;20212;-73
2023/08/06 08:04:55;;;;;;;1.73;1.23;;;;;;;;;;5021057;28;20201;-74
2023/08/06 08:07:59;;;;;;;1.83;1.30;;;;;;;;;;5020732;28;20201;-73
2023/08/06 08:11:03;;;;;;;1.57;1.07;;;;;;;;;;5033394;28;20220;-73
2023/08/06 08:14:07;;;;;;;1.30;0.80;;;;;;;;;;5032946;28;20204;-73
2023/08/06 08:17:12;;;;;;;2.33;0.67;;;;;;;;;;5032542;28;20192;-73
2023/08/06 08:20:16;;;;;;;1.53;1.20;;;;;;;;;;5032483;28;20204;-73
2023/08/06 08:23:20;;;;;;;1.10;1.00;;;;;;;;;;5020969;28;20177;-72
2023/08/06 08:26:25;;;;;;;3.07;1.10;;;;;;;;;;5020909;28;20177;-72
2023/08/06 08:29:29;;;;;;;1.13;0.97;;;;;;;;;;5032776;28;20631;-73
2023/08/06 08:32:33;;;;;;;1.83;0.90;;;;;;;;;;5032708;28;20224;-73
2023/08/06 08:35:37;;;;;;;1.10;0.87;;;;;;;;;;5032750;28;20185;-73
2023/08/06 08:38:41;;;;;;;1.27;0.80;;;;;;;;;;5021050;28;20173;-73
2023/08/06 08:41:45;;;;;;;1.40;0.87;;;;;;;;;;5036778;28;20212;-73
2023/08/06 08:44:50;;;;;;;1.57;0.90;;;;;;;;;;5024698;28;20631;-73
2023/08/06 08:47:54;;;;;;;0.77;0.73;;;;;;;;;;5036471;28;20213;-72
2023/08/06 08:50:58;;;;;;;1.00;0.80;;;;;;;;;;5036438;28;20221;-73
2023/08/06 08:54:03;;;;;;;2.20;1.13;;;;;;;;;;5036643;28;20624;-73
2023/08/06 08:57:08;;;;;;;1.47;0.80;;;;;;;;;;5024367;28;20181;-73
2023/08/06 09:00:14;;;;;;;2.87;0.90;;;;;;;;;;5036457;28;20177;-72
2023/08/06 09:03:18;;;;;;;1.07;0.97;;;;;;;;;;5035657;28;20185;-73
2023/08/06 09:06:25;;;;;;;1.80;0.90;;;;;;;;;;5036427;28;20628;-74
2023/08/06 09:09:33;;;;;;;1.20;0.90;;;;;;;;;;5024347;28;20181;-74
2023/08/06 09:12:37;;;;;;;4.23;1.00;;;;;;;;;;5036362;28;20209;-73
2023/08/06 09:15:43;;;;;;;1.50;0.93;;;;;;;;;;5024213;28;20185;-74
2023/08/06 09:18:47;;;;;;;1.53;0.80;;;;;;;;;;5035153;28;20185;-74
2023/08/06 09:21:55;;;;;;;4.03;1.00;;;;;;;;;;5035000;28;20216;-73
2023/08/06 09:24:59;;;;;;;1.17;1.07;;;;;;;;;;5035893;28;20513;-73
2023/08/06 09:28:03;;;;;;;2.20;0.87;;;;;;;;;;5035645;28;20221;-73
2023/08/06 09:31:08;;;;;;;1.00;0.70;;;;;;;;;;5023472;28;20706;-73
2023/08/06 09:34:21;;;;;;;1.20;0.77;;;;;;;;;;5035627;28;20181;-73
2023/08/06 09:37:35;;;;;;;1.23;0.60;;;;;;;;;;5023639;28;20176;-73
2023/08/06 09:40:40;;;;;;;0.83;0.50;;;;;;;;;;5034823;28;20176;-73
2023/08/06 09:43:44;;;;;;;1.00;0.60;;;;;;;;;;5034812;28;20636;-73
2023/08/06 09:46:56;;;;;;;1.33;0.57;;;;;;;;;;5035907;28;20184;-73
2023/08/06 09:50:00;;;;;;;1.13;0.60;;;;;;;;;;5035170;28;20180;-74
2023/08/06 09:53:05;;;;;;;1.33;0.70;;;;;;;;;;5035656;28;20181;-74
2023/08/06 09:56:10;;;;;;;2.03;0.90;;;;;;;;;;5035619;28;20181;-73
2023/08/06 09:59:15;;;;;;;1.53;0.77;;;;;;;;;;5035823;28;20181;-73
2023/08/06 10:02:26;;;;;;;0.93;0.40;;;;;;;;;;5035295;28;20220;-74
2023/08/06 10:05:31;;;;;;;2.83;0.83;;;;;;;;;;5035089;28;20683;-74
2023/08/06 10:08:35;;;;;;;1.33;0.70;;;;;;;;;;5035234;28;20541;-74
2023/08/06 10:11:40;;;;;;;1.93;0.60;;;;;;;;;;5034969;28;20216;-73
2023/08/06 10:14:46;;;;;;;1.27;0.50;;;;;;;;;;5023236;28;20177;-74
2023/08/06 10:17:54;;;;;;;2.00;0.60;;;;;;;;;;5035078;28;20173;-74
2023/08/06 10:20:59;;;;;;;1.70;0.50;;;;;;;;;;5033842;28;20216;-74
2023/08/06 10:24:09;;;;;;;0.70;0.57;;;;;;;;;;5034879;28;20177;-74
2023/08/06 10:27:13;;;;;;;0.57;0.50;;;;;;;;;;5023160;28;20185;-74
2023/08/06 10:30:25;;;;;;;0.70;0.50;;;;;;;;;;5034947;28;20181;-74
2023/08/06 10:33:44;;;;;;;1.20;0.50;;;;;;;;;;5035050;28;20173;-74
2023/08/06 10:36:48;;;;;;;1.63;0.40;;;;;;;;;;5022476;28;20200;-74
2023/08/06 10:39:53;;;;;;;0.90;0.57;;;;;;;;;;5034942;28;20165;-74
2023/08/06 10:43:01;;;;;;;2.33;1.73;;;;;;;;;;5022621;28;20176;-73
2023/08/06 10:46:23;;;;;;;9.70;0.73;;;;;;;;;;5033488;28;20177;-74
2023/08/06 10:49:27;;;;;;;2.33;1.10;;;;;;;;;;5034517;28;20205;-73
2023/08/06 10:52:31;;;;;;;1.07;0.70;;;;;;;;;;5034476;28;20212;-74
2023/08/06 10:55:37;;;;;;;2.67;0.77;;;;;;;;;;5034416;28;20173;-74
2023/08/06 10:58:43;;;;;;;1.40;0.97;;;;;;;;;;5034354;28;20169;-74
2023/08/06 11:01:48;;;;;;;1.20;0.73;;;;;;;;;;5033415;28;20216;-74
2023/08/06 11:04:52;;;;;;;0.90;0.57;;;;;;;;;;5033951;28;20671;-74
2023/08/06 11:07:56;;;;;;;0.90;0.47;;;;;;;;;;5033076;28;20667;-74
2023/08/06 11:11:14;;;;;;;1.33;0.30;;;;;;;;;;5034238;28;20208;-74
2023/08/06 11:14:18;;;;;;;1.23;0.40;;;;;;;;;;5033674;28;20196;-74
2023/08/06 11:17:22;;;;;;;2.60;0.37;;;;;;;;;;5033185;28;20517;-73
2023/08/06 11:20:26;;;;;;;0.77;0.33;;;;;;;;;;5033899;28;20177;-74
2023/08/06 11:23:30;;;;;;;1.23;0.67;;;;;;;;;;5033937;28;20636;-74
2023/08/06 11:26:36;;;;;;;1.23;0.40;;;;;;;;;;5033566;28;20177;-74
2023/08/06 11:29:42;;;;;;;0.70;0.40;;;;;;;;;;5034042;28;20533;-74
2023/08/06 11:32:47;;;;;;;0.30;0.30;;;;;;;;;;5033120;28;20216;-73
2023/08/06 11:35:52;;;;;;;0.23;0.23;;;;;;;;;;5033618;28;20628;-73
2023/08/06 11:38:57;;;;;;;1.13;0.60;;;;;;;;;;5033343;28;20196;-74
2023/08/06 11:42:08;;;;;;;0.30;0.30;;;;;;;;;;5032498;28;20220;-74
2023/08/06 11:45:12;;;;;;;0.73;0.30;;;;;;;;;;5021632;28;20627;-74
2023/08/06 11:48:16;;;;;;;0.40;0.33;;;;;;;;;;5032667;28;20208;-73
2023/08/06 11:51:25;;;;;;;0.57;0.23;;;;;;;;;;5032303;28;20216;-73
2023/08/06 11:54:37;;;;;;;0.40;0.20;;;;;;;;;;5021252;28;20532;-74
2023/08/06 11:57:44;;;;;;;0.20;0.20;;;;;;;;;;5032480;28;20181;-74
2023/08/06 12:00:48;;;;;;;0.40;0.30;;;;;;;;;;5021588;28;20212;-74
2023/08/06 12:03:59;;;;;;;0.57;0.30;;;;;;;;;;5050353;22;20192;31
2023/08/06 12:07:09;;;;;;;0.30;0.20;;;;;;;;;;4972342;28;20573;-83
2023/08/06 12:10:14;;;;;;;0.20;0.20;;;;;;;;;;4974556;28;20183;-83
2023/08/06 12:13:17;;;;;;;5.67;4.50;;;;;;;;;;4975274;28;20527;-82
2023/08/06 12:16:23;;;;;;;2.93;2.30;;;;;;;;;;4972148;28;20642;-82
2023/08/06 12:19:27;;;;;;;0.40;0.40;;;;;;;;;;4972358;28;20267;-82
2023/08/06 12:22:35;;;;;;;1.23;0.40;;;;;;;;;;4972702;28;20183;-83
2023/08/06 12:25:39;;;;;;;1.17;0.30;;;;;;;;;;4971984;28;20211;-82
2023/08/06 12:28:43;;;;;;;0.30;0.30;;;;;;;;;;4961122;29;20202;-83
2023/08/06 12:31:47;;;;;;;0.40;0.30;;;;;;;;;;4961237;29;20191;-82
2023/08/06 12:34:52;;;;;;;0.20;0.20;;;;;;;;;;4961159;28;20219;-83
2023/08/06 12:37:57;;;;;;;0.30;0.20;;;;;;;;;;4973278;28;20187;-83
2023/08/06 12:41:02;;;;;;;0.30;0.30;;;;;;;;;;4961364;29;20183;-83
2023/08/06 12:44:06;;;;;;;0.40;0.30;;;;;;;;;;4960778;29;20215;-82
2023/08/06 12:47:10;;;;;;;0.87;0.30;;;;;;;;;;4961756;28;20497;-83
2023/08/06 12:50:14;;;;;;;0.57;0.30;;;;;;;;;;4971948;28;20191;-83
2023/08/06 12:53:20;;;;;;;0.67;0.30;;;;;;;;;;4971711;28;20211;-83
2023/08/06 12:56:25;;;;;;;1.33;0.20;;;;;;;;;;4972721;28;20179;-83
2023/08/06 12:59:29;;;;;;;0.20;0.20;;;;;;;;;;4961854;28;20176;-83
2023/08/06 13:02:33;;;;;;;1.83;0.40;;;;;;;;;;4973022;28;20180;-83
2023/08/06 13:05:37;;;;;;;0.40;0.30;;;;;;;;;;4972237;28;20227;-83
2023/08/06 13:08:41;;;;;;;2.00;0.40;;;;;;;;;;4972380;28;20227;-83
2023/08/06 13:11:46;;;;;;;0.90;0.40;;;;;;;;;;4961150;29;20207;-82
2023/08/06 13:14:50;;;;;;;0.40;0.40;;;;;;;;;;4961190;29;20223;-83
2023/08/06 13:17:54;;;;;;;0.83;0.50;;;;;;;;;;4961527;29;20179;-82
2023/08/06 13:20:58;;;;;;;0.30;0.30;;;;;;;;;;4972237;28;20183;-83
2023/08/06 13:24:03;;;;;;;0.30;0.30;;;;;;;;;;4972307;28;20203;-82
2023/08/06 13:27:09;;;;;;;1.60;0.40;;;;;;;;;;4968899;28;20203;-83
2023/08/06 13:30:13;;;;;;;7.60;3.97;;;;;;;;;;4957602;29;20219;-82
2023/08/06 13:33:17;;;;;;;2.13;0.40;;;;;;;;;;4968449;28;20199;-82
2023/08/06 13:36:22;;;;;;;0.40;0.30;;;;;;;;;;4968528;28;20520;-82
2023/08/06 13:39:26;;;;;;;1.20;0.37;;;;;;;;;;4957402;29;20180;-83
2023/08/06 13:42:32;;;;;;;0.40;0.30;;;;;;;;;;4968108;28;20187;-82
2023/08/06 13:45:37;;;;;;;0.60;0.40;;;;;;;;;;4968003;28;20698;-82
2023/08/06 13:48:43;;;;;;;0.30;0.30;;;;;;;;;;4957073;29;20211;-82
2023/08/06 13:51:47;;;;;;;0.90;0.30;;;;;;;;;;4956933;29;20188;-82
2023/08/06 13:54:51;;;;;;;0.30;0.30;;;;;;;;;;4967818;28;20698;-83
2023/08/06 13:57:55;;;;;;;0.40;0.30;;;;;;;;;;4956877;29;20203;-82
2023/08/06 14:01:00;;;;;;;0.77;0.20;;;;;;;;;;4956867;29;20175;-82
2023/08/06 14:04:04;;;;;;;0.73;0.30;;;;;;;;;;4956162;29;20227;-82
2023/08/06 14:07:08;;;;;;;0.20;0.20;;;;;;;;;;4968012;28;20184;-82
2023/08/06 14:10:12;;;;;;;0.50;0.30;;;;;;;;;;4967515;28;20547;-82
2023/08/06 14:13:16;;;;;;;2.37;0.70;;;;;;;;;;4967460;28;20192;-83
2023/08/06 14:16:20;;;;;;;3.57;2.93;;;;;;;;;;4956407;29;20199;-82
2023/08/06 14:19:24;;;;;;;9.97;7.40;;;;;;;;;;4967793;28;20646;-83
2023/08/06 14:22:30;;;;;;;4.73;2.23;;;;;;;;;;4967162;28;20175;-83
2023/08/06 14:25:34;;;;;;;1.40;1.00;;;;;;;;;;4967280;28;20219;-82
2023/08/06 14:28:38;;;;;;;0.60;0.60;;;;;;;;;;4956285;29;20199;-82
2023/08/06 14:31:42;;;;;;;0.90;0.40;;;;;;;;;;4955965;29;20203;-83
2023/08/06 14:34:46;;;;;;;2.87;1.03;;;;;;;;;;4944887;29;20563;-82
2023/08/06 14:37:50;;;;;;;0.50;0.40;;;;;;;;;;4955033;28;20179;-82
2023/08/06 14:40:54;;;;;;;0.40;0.30;;;;;;;;;;4967575;28;20531;-83
2023/08/06 14:43:58;;;;;;;0.60;0.50;;;;;;;;;;4967605;28;20187;-83
2023/08/06 14:47:03;;;;;;;0.63;0.40;;;;;;;;;;4956654;29;20183;-83
2023/08/06 14:50:07;;;;;;;1.53;0.40;;;;;;;;;;4956413;29;20203;-83
2023/08/06 14:53:13;;;;;;;0.40;0.40;;;;;;;;;;4967037;28;20188;-83
2023/08/06 14:56:17;;;;;;;0.40;0.40;;;;;;;;;;4956155;29;20195;-83
2023/08/06 14:59:20;;;;;;;12.17;7.77;;;;;;;;;;4967225;28;20180;-83
2023/08/06 15:02:26;;;;;;;20.97;12.40;;;;;;;;;;4955972;29;20187;-83
2023/08/06 15:05:30;;;;;;;1.60;1.50;;;;;;;;;;4968226;28;20238;-83
2023/08/06 15:08:34;;;;;;;1.40;1.30;;;;;;;;;;4955381;29;20191;-83
2023/08/06 15:11:38;;;;;;;0.90;0.90;;;;;;;;;;4966401;28;20207;-82
2023/08/06 15:14:42;;;;;;;1.43;0.80;;;;;;;;;;4966523;28;20219;-83
2023/08/06 15:17:46;;;;;;;1.83;0.63;;;;;;;;;;4955415;29;20183;-83
2023/08/06 15:20:50;;;;;;;1.07;0.60;;;;;;;;;;4966594;28;20172;-83
2023/08/06 15:23:55;;;;;;;1.17;0.70;;;;;;;;;;4966131;28;20203;-82
2023/08/06 15:26:58;;;;;;;1.57;0.70;;;;;;;;;;4954774;29;20203;-82
2023/08/06 15:30:04;;;;;;;1.37;0.70;;;;;;;;;;4966358;28;20211;-82
2023/08/06 15:33:08;;;;;;;1.33;1.23;;;;;;;;;;4966357;28;20187;-82
2023/08/06 15:36:12;;;;;;;0.80;0.80;;;;;;;;;;4954844;29;20199;-82
2023/08/06 15:39:16;;;;;;;3.30;0.77;;;;;;;;;;4955421;29;20180;-83
2023/08/06 15:42:20;;;;;;;1.10;0.80;;;;;;;;;;4955005;29;20203;-82
2023/08/06 15:45:24;;;;;;;1.13;0.80;;;;;;;;;;4967188;28;20567;-86
2023/08/06 15:48:29;;;;;;;3.60;1.10;;;;;;;;;;4966560;28;20184;-83
2023/08/06 15:51:33;;;;;;;1.10;0.80;;;;;;;;;;4965880;28;20171;-83
2023/08/06 15:54:37;;;;;;;0.87;0.70;;;;;;;;;;4954654;29;20690;-82
2023/08/06 15:57:42;;;;;;;0.93;0.80;;;;;;;;;;4955035;29;20175;-83
2023/08/06 16:00:47;;;;;;;1.17;0.93;;;;;;;;;;4966361;28;20195;-83
2023/08/06 16:03:50;;;;;;;3.23;0.73;;;;;;;;;;4965419;28;20203;-81
2023/08/06 16:06:55;;;;;;;0.90;0.60;;;;;;;;;;4965764;28;20192;-82
2023/08/06 16:09:59;;;;;;;1.10;0.90;;;;;;;;;;4954779;29;20207;-82
2023/08/06 16:13:04;;;;;;;2.67;0.90;;;;;;;;;;4965406;28;20187;-82
2023/08/06 16:16:08;;;;;;;1.67;0.70;;;;;;;;;;4954676;29;20222;-82
2023/08/06 16:19:12;;;;;;;1.53;0.60;;;;;;;;;;4954933;29;20179;-83
2023/08/06 16:22:18;;;;;;;1.27;0.70;;;;;;;;;;4954342;29;20176;-82
2023/08/06 16:25:21;;;;;;;1.73;0.60;;;;;;;;;;4965620;28;20223;-82
2023/08/06 16:28:28;;;;;;;1.40;1.07;;;;;;;;;;4954660;29;20179;-83
2023/08/06 16:31:32;;;;;;;4.13;1.00;;;;;;;;;;4966648;28;20180;-83
2023/08/06 16:34:38;;;;;;;1.10;0.87;;;;;;;;;;4966553;28;20219;-85
2023/08/06 16:37:46;;;;;;;1.00;0.90;;;;;;;;;;4966971;28;20183;-83
2023/08/06 16:40:52;;;;;;;1.63;0.83;;;;;;;;;;4955611;29;20192;-83
2023/08/06 16:43:56;;;;;;;0.87;0.80;;;;;;;;;;4966717;28;20203;-84
2023/08/06 16:47:01;;;;;;;1.13;0.90;;;;;;;;;;4966202;28;20203;-83
2023/08/06 16:50:06;;;;;;;0.57;0.50;;;;;;;;;;4955103;29;20211;-82
2023/08/06 16:53:10;;;;;;;0.80;0.70;;;;;;;;;;4965901;28;20196;-83
2023/08/06 16:56:14;;;;;;;0.77;0.67;;;;;;;;;;4955255;29;20528;-84
2023/08/06 16:59:18;;;;;;;0.93;0.60;;;;;;;;;;4965828;28;20639;-83
2023/08/06 17:02:23;;;;;;;1.57;0.80;;;;;;;;;;4969762;28;20180;-83
2023/08/06 17:05:27;;;;;;;1.07;0.93;;;;;;;;;;4969998;28;20222;-82
2023/08/06 17:08:34;;;;;;;1.23;0.93;;;;;;;;;;4958516;29;20556;-83
2023/08/06 17:11:38;;;;;;;2.37;0.60;;;;;;;;;;4959230;29;20179;-82
2023/08/06 17:14:42;;;;;;;1.23;0.63;;;;;;;;;;4969376;28;20223;-82
2023/08/06 17:17:47;;;;;;;0.90;0.60;;;;;;;;;;4958490;29;20199;-83
2023/08/06 17:20:51;;;;;;;4.23;3.40;;;;;;;;;;4958385;29;20176;-83
2023/08/06 17:23:55;;;;;;;1.27;0.90;;;;;;;;;;4958076;28;20183;-82
2023/08/06 17:26:59;;;;;;;1.47;1.00;;;;;;;;;;4957920;29;20187;-82
2023/08/06 17:30:05;;;;;;;1.30;1.00;;;;;;;;;;4969384;28;20211;-85
2023/08/06 17:33:11;;;;;;;0.97;0.70;;;;;;;;;;4958904;29;20536;-83
2023/08/06 17:36:14;;;;;;;3.20;1.80;;;;;;;;;;4969371;28;20203;-83
2023/08/06 17:39:18;;;;;;;4.33;2.77;;;;;;;;;;4969345;28;20532;-83
2023/08/06 17:42:23;;;;;;;3.07;2.00;;;;;;;;;;4958059;29;20203;-82
2023/08/06 17:45:27;;;;;;;3.10;1.20;;;;;;;;;;4969165;28;20214;-83
2023/08/06 17:48:31;;;;;;;5.00;2.47;;;;;;;;;;4958063;29;20180;-83
2023/08/06 17:51:35;;;;;;;3.00;1.60;;;;;;;;;;4968864;28;20203;-83
2023/08/06 17:54:39;;;;;;;1.87;1.40;;;;;;;;;;4958090;29;20223;-83
2023/08/06 17:57:44;;;;;;;3.37;2.60;;;;;;;;;;4957558;29;20187;-83
2023/08/06 18:00:49;;;;;;;5.77;4.93;;;;;;;;;;4957882;29;20184;-83
2023/08/06 18:03:53;;;;;;;1.40;1.23;;;;;;;;;;4968875;28;20199;-82
2023/08/06 18:06:57;;;;;;;1.70;1.60;;;;;;;;;;5019603;23;20688;-84
2023/08/06 18:10:01;;;;;;;7.93;4.00;;;;;;;;;;4986104;28;20202;-83
2023/08/06 18:13:06;;;;;;;3.90;2.37;;;;;;;;;;4975114;28;20186;-84
2023/08/06 18:16:10;;;;;;;4.80;2.30;;;;;;;;;;4975067;28;20217;-84
2023/08/06 18:19:14;;;;;;;4.30;3.27;;;;;;;;;;4975059;28;20190;-84
2023/08/06 18:22:18;;;;;;;1.63;1.53;;;;;;;;;;4996820;28;20175;-84
2023/08/06 18:25:22;;;;;;;1.63;1.10;;;;;;;;;;4985785;28;20221;-84
2023/08/06 18:28:26;;;;;;;0.60;0.60;;;;;;;;;;4975105;28;20625;-84
2023/08/06 18:31:31;;;;;;;1.10;0.70;;;;;;;;;;4985221;28;20210;-84